Time;durP1;ratioP1;P1;durP2;ratioP2;P2;SDS_P1;SDS_P2;PMS_P1;PMS_P2;Temp;Humidity;BMP_temperature;BMP_pressure;BME280_temperature;BME280_humidity;BME280_pressure;Samples;Min_cycle;Max_cycle;Signal;HPM_P1;HPM_P2
2022/08/20 00:00:54;;;;;;;51.10;26.23;;;;;;;-144.48;100.00;62369.91;5061481;28;20050;-69
2022/08/20 00:03:27;;;;;;;48.10;25.77;;;;;;;-144.48;100.00;62369.91;5071126;28;20409;-67
2022/08/20 00:06:10;;;;;;;45.95;26.33;;;;;;;-144.48;100.00;62369.91;5071720;28;20033;-68
2022/08/20 00:08:36;;;;;;;48.85;24.77;;;;;;;-144.48;100.00;62369.91;5071420;28;20459;-67
2022/08/20 00:11:05;;;;;;;45.22;26.02;;;;;;;-144.48;100.00;62369.91;5071683;28;20051;-68
2022/08/20 00:13:38;;;;;;;48.38;24.65;;;;;;;-144.48;100.00;62369.91;5071762;28;20554;-65
2022/08/20 00:16:04;;;;;;;50.05;25.45;;;;;;;-144.48;100.00;62369.91;5072087;28;20025;-66
2022/08/20 00:18:30;;;;;;;41.88;23.27;;;;;;;-144.48;100.00;62369.91;5071482;28;20028;-68
2022/08/20 00:20:56;;;;;;;44.25;24.52;;;;;;;-144.48;100.00;62369.91;5070451;28;20031;-68
2022/08/20 00:23:23;;;;;;;45.17;25.05;;;;;;;-144.48;100.00;62369.91;5070301;28;20028;-67
2022/08/20 00:25:49;;;;;;;49.45;24.70;;;;;;;-144.48;100.00;62369.91;5071228;28;20025;-69
2022/08/20 00:28:15;;;;;;;45.75;24.02;;;;;;;-144.48;100.00;62369.91;5066590;28;20028;-70
2022/08/20 00:30:43;;;;;;;46.10;24.48;;;;;;;-144.48;100.00;62369.91;5067418;28;20017;-69
2022/08/20 00:33:27;;;;;;;47.53;24.15;;;;;;;-144.48;100.00;62369.91;5066676;28;20055;-70
2022/08/20 00:36:05;;;;;;;48.10;23.25;;;;;;;-144.48;100.00;62369.91;5056950;28;20035;-68
2022/08/20 00:38:31;;;;;;;46.65;24.95;;;;;;;-144.48;100.00;62369.91;5071123;28;20099;-68
2022/08/20 00:40:58;;;;;;;56.85;25.38;;;;;;;-144.48;100.00;62369.91;5083829;22;20045;-66
2022/08/20 00:43:51;;;;;;;47.05;24.13;;;;;;;-144.48;100.00;62369.91;5071210;28;20126;-69
2022/08/20 00:46:23;;;;;;;48.45;25.42;;;;;;;-144.48;100.00;62369.91;5071751;28;20189;-69
2022/08/20 00:48:52;;;;;;;51.85;25.40;;;;;;;-144.48;100.00;62369.91;5053199;28;20047;-71
2022/08/20 00:51:42;;;;;;;43.42;25.05;;;;;;;-144.48;100.00;62369.91;5053378;28;20020;-70
2022/08/20 00:54:14;;;;;;;63.75;28.30;;;;;;;-144.48;100.00;62369.91;5060728;28;20036;-69
2022/08/20 00:56:42;;;;;;;52.50;27.50;;;;;;;-144.48;100.00;62369.91;5070791;28;20028;-67
2022/08/20 00:59:10;;;;;;;54.75;27.73;;;;;;;-144.48;100.00;62369.91;5036671;28;20020;-69
2022/08/20 01:01:39;;;;;;;52.30;27.50;;;;;;;-144.48;100.00;62369.91;5071438;28;20023;-69
2022/08/20 01:04:04;;;;;;;54.40;28.23;;;;;;;-144.48;100.00;62369.91;5051959;28;20108;-68
2022/08/20 01:06:31;;;;;;;55.72;26.60;;;;;;;-144.48;100.00;62369.91;5069965;28;20159;-69
2022/08/20 01:08:57;;;;;;;54.15;26.10;;;;;;;-144.48;100.00;62369.91;5036170;28;20043;-68
2022/08/20 01:11:32;;;;;;;51.78;27.70;;;;;;;-144.48;100.00;62369.91;5070650;28;20021;-68
2022/08/20 01:13:58;;;;;;;56.15;27.30;;;;;;;-144.48;100.00;62369.91;5070575;28;20488;-66
2022/08/20 01:16:29;;;;;;;58.72;28.50;;;;;;;-144.48;100.00;62369.91;5035623;28;20294;-69
2022/08/20 01:18:56;;;;;;;50.13;26.73;;;;;;;-144.48;100.00;62369.91;5053223;28;20075;-70
2022/08/20 01:21:27;;;;;;;65.63;27.52;;;;;;;-144.48;100.00;62369.91;5070577;28;20024;-68
2022/08/20 01:24:16;;;;;;;62.03;28.70;;;;;;;-144.48;100.00;62369.91;5070494;28;20020;-67
2022/08/20 01:26:46;;;;;;;51.47;26.17;;;;;;;-144.48;100.00;62369.91;5069331;28;20024;-66
2022/08/20 01:29:22;;;;;;;58.78;27.92;;;;;;;-144.48;100.00;62369.91;5049608;28;20070;-69
2022/08/20 01:31:48;;;;;;;64.43;28.83;;;;;;;-144.48;100.00;62369.91;5057050;28;20032;-68
2022/08/20 01:34:19;;;;;;;52.80;26.40;;;;;;;-144.48;100.00;62369.91;5046008;28;20025;-66
2022/08/20 01:36:48;;;;;;;50.80;26.40;;;;;;;-144.48;100.00;62369.91;5032736;28;20029;-67
2022/08/20 01:39:16;;;;;;;54.55;26.63;;;;;;;-144.48;100.00;62369.91;5052643;28;20478;-68
2022/08/20 01:42:07;;;;;;;52.38;26.08;;;;;;;-144.48;100.00;62369.91;5051819;28;20021;-69
2022/08/20 01:44:34;;;;;;;52.25;25.70;;;;;;;-144.48;100.00;62369.91;5052173;28;20035;-67
2022/08/20 01:47:08;;;;;;;54.33;27.85;;;;;;;-144.48;100.00;62369.91;5051736;28;20025;-68
2022/08/20 01:49:35;;;;;;;55.47;27.23;;;;;;;-144.48;100.00;62369.91;5070272;28;20052;-68
2022/08/20 01:52:06;;;;;;;56.10;27.15;;;;;;;-144.48;100.00;62369.91;5024187;28;20020;-69
2022/08/20 01:54:33;;;;;;;60.30;26.85;;;;;;;-144.48;100.00;62369.91;5069828;28;20056;-68
2022/08/20 01:57:23;;;;;;;49.47;25.05;;;;;;;-144.48;100.00;62369.91;5039079;28;20047;-70
2022/08/20 01:59:49;;;;;;;56.97;28.20;;;;;;;-144.48;100.00;62369.91;5070019;28;20021;-70
2022/08/20 02:02:14;;;;;;;58.72;27.42;;;;;;;-144.48;100.00;62369.91;5051798;28;20492;-69
2022/08/20 02:04:40;;;;;;;53.38;27.40;;;;;;;-144.48;100.00;62369.91;5051735;28;20032;-68
2022/08/20 02:07:11;;;;;;;52.72;26.98;;;;;;;-144.48;100.00;62369.91;5031679;28;20020;-69
2022/08/20 02:09:38;;;;;;;57.05;27.83;;;;;;;-144.48;100.00;62369.91;5035854;28;20445;-67
2022/08/20 02:12:05;;;;;;;55.03;28.10;;;;;;;-144.48;100.00;62369.91;5035306;28;20051;-69
2022/08/20 02:14:31;;;;;;;57.60;28.38;;;;;;;-144.48;100.00;62369.91;5051949;28;20115;-68
2022/08/20 02:16:58;;;;;;;58.35;28.33;;;;;;;-144.48;100.00;62369.91;5069694;28;20106;-70
2022/08/20 02:19:39;;;;;;;54.15;28.10;;;;;;;-144.48;100.00;62369.91;5051847;28;20537;-69
2022/08/20 02:22:16;;;;;;;62.03;29.08;;;;;;;-144.48;100.00;62369.91;5069505;28;20027;-68
2022/08/20 02:24:42;;;;;;;56.78;28.02;;;;;;;-144.48;100.00;62369.91;5069618;28;20025;-66
2022/08/20 02:27:08;;;;;;;57.10;28.20;;;;;;;-144.48;100.00;62369.91;5047286;28;20032;-69
2022/08/20 02:29:33;;;;;;;60.10;28.65;;;;;;;-144.48;100.00;62369.91;5069600;28;20016;-69
2022/08/20 02:31:59;;;;;;;63.35;28.90;;;;;;;-144.48;100.00;62369.91;5038333;28;20479;-68
2022/08/20 02:34:24;;;;;;;62.42;29.42;;;;;;;-144.48;100.00;62369.91;5058763;28;20115;-69
2022/08/20 02:36:50;;;;;;;56.30;28.13;;;;;;;-144.48;100.00;62369.91;5051018;28;20036;-69
2022/08/20 02:39:15;;;;;;;54.22;27.05;;;;;;;-144.48;100.00;62369.91;5069040;28;20021;-70
2022/08/20 02:41:41;;;;;;;58.10;29.33;;;;;;;-144.48;100.00;62369.91;5052788;28;20134;-68
2022/08/20 02:44:07;;;;;;;58.42;29.48;;;;;;;-144.48;100.00;62369.91;5051631;28;20038;-70
2022/08/20 02:46:34;;;;;;;59.80;29.17;;;;;;;-144.48;100.00;62369.91;5051239;28;20025;-70
2022/08/20 02:49:00;;;;;;;57.97;29.63;;;;;;;-144.48;100.00;62369.91;5051306;28;20397;-71
2022/08/20 02:51:25;;;;;;;62.35;30.15;;;;;;;-144.48;100.00;62369.91;5051037;28;20021;-71
2022/08/20 02:53:51;;;;;;;56.17;30.27;;;;;;;-144.48;100.00;62369.91;5069155;28;20056;-68
2022/08/20 02:56:17;;;;;;;57.30;28.17;;;;;;;-144.48;100.00;62369.91;5034658;28;20718;-68
2022/08/20 02:58:43;;;;;;;57.83;28.40;;;;;;;-144.48;100.00;62369.91;5051489;28;20025;-68
2022/08/20 03:01:12;;;;;;;61.78;30.40;;;;;;;-144.48;100.00;62369.91;5051020;28;20397;-69
2022/08/20 03:03:39;;;;;;;68.32;31.40;;;;;;;-144.48;100.00;62369.91;5051512;28;20516;-67
2022/08/20 03:06:06;;;;;;;67.30;30.25;;;;;;;-144.48;100.00;62369.91;5051059;28;20497;-71
2022/08/20 03:08:33;;;;;;;68.00;31.70;;;;;;;-144.48;100.00;62369.91;5030953;28;20116;-68
2022/08/20 03:10:58;;;;;;;65.13;30.92;;;;;;;-144.48;100.00;62369.91;5063714;28;20017;-68
2022/08/20 03:13:24;;;;;;;64.15;30.35;;;;;;;-144.48;100.00;62369.91;5069051;28;20504;-70
2022/08/20 03:15:54;;;;;;;65.00;31.42;;;;;;;-144.48;100.00;62369.91;5068808;28;20031;-68
2022/08/20 03:18:20;;;;;;;75.13;32.30;;;;;;;-144.48;100.00;62369.91;5051259;28;20446;-68
2022/08/20 03:20:46;;;;;;;66.38;31.98;;;;;;;-144.48;100.00;62369.91;5050494;28;20086;-68
2022/08/20 03:23:12;;;;;;;81.88;33.83;;;;;;;-144.48;100.00;62369.91;5069440;28;20242;-67
2022/08/20 03:25:38;;;;;;;64.47;29.40;;;;;;;-144.48;100.00;62369.91;5068926;28;20020;-67
2022/08/20 03:28:04;;;;;;;67.03;31.13;;;;;;;-144.48;100.00;62369.91;5046301;28;20044;-69
2022/08/20 03:30:30;;;;;;;68.57;32.63;;;;;;;-144.48;100.00;62369.91;5048106;28;20083;-69
2022/08/20 03:32:57;;;;;;;70.20;33.47;;;;;;;-144.48;100.00;62369.91;5033809;28;20050;-69
2022/08/20 03:35:25;;;;;;;68.30;31.98;;;;;;;-144.48;100.00;62369.91;5034293;28;20167;-66
2022/08/20 03:37:51;;;;;;;66.35;32.65;;;;;;;-144.48;100.00;62369.91;5068631;28;20031;-69
2022/08/20 03:40:22;;;;;;;68.68;32.17;;;;;;;-144.48;100.00;62369.91;5068940;28;20032;-69
2022/08/20 03:42:48;;;;;;;64.85;32.63;;;;;;;-144.48;100.00;62369.91;5068791;28;20107;-69
2022/08/20 03:45:13;;;;;;;71.72;33.10;;;;;;;-144.48;100.00;62369.91;5034121;28;20167;-67
2022/08/20 03:47:40;;;;;;;70.25;32.75;;;;;;;-144.48;100.00;62369.91;5050548;28;20028;-67
2022/08/20 03:50:08;;;;;;;67.25;32.45;;;;;;;-144.48;100.00;62369.91;5067207;28;20032;-68
2022/08/20 03:52:33;;;;;;;82.72;32.35;;;;;;;-144.48;100.00;62369.91;5043007;28;20083;-67
2022/08/20 03:54:58;;;;;;;70.30;32.78;;;;;;;-144.48;100.00;62369.91;5053757;28;20017;-67
2022/08/20 03:57:24;;;;;;;70.88;33.35;;;;;;;-144.48;100.00;62369.91;5037149;28;20094;-67
2022/08/20 03:59:50;;;;;;;69.05;32.55;;;;;;;-144.48;100.00;62369.91;5054100;28;20024;-68
2022/08/20 04:02:16;;;;;;;67.40;31.35;;;;;;;-144.48;100.00;62369.91;5054833;28;20028;-69
2022/08/20 04:04:42;;;;;;;73.18;34.22;;;;;;;-144.48;100.00;62369.91;5072063;28;20478;-69
2022/08/20 04:07:14;;;;;;;73.63;34.42;;;;;;;-144.48;100.00;62369.91;5071894;28;20028;-69
2022/08/20 04:09:40;;;;;;;72.05;34.45;;;;;;;-144.48;100.00;62369.91;5017614;28;20487;-67
2022/08/20 04:12:06;;;;;;;80.38;35.17;;;;;;;-144.48;100.00;62369.91;5062593;28;20035;-69
2022/08/20 04:14:32;;;;;;;78.22;35.03;;;;;;;-144.48;100.00;62369.91;5071926;28;20017;-69
2022/08/20 04:16:58;;;;;;;74.80;34.15;;;;;;;-144.48;100.00;62369.91;5053978;28;20422;-71
2022/08/20 04:19:23;;;;;;;71.50;33.75;;;;;;;-144.48;100.00;62369.91;5017420;28;20087;-68
2022/08/20 04:21:49;;;;;;;87.15;35.15;;;;;;;-144.48;100.00;62369.91;5044490;28;20025;-69
2022/08/20 04:24:14;;;;;;;75.95;35.20;;;;;;;-144.48;100.00;62369.91;5072127;28;20506;-69
2022/08/20 04:26:41;;;;;;;82.43;34.58;;;;;;;-144.48;100.00;62369.91;5070623;28;20032;-71
2022/08/20 04:29:07;;;;;;;80.43;34.55;;;;;;;-144.48;100.00;62369.91;5034100;28;20047;-69
2022/08/20 04:31:33;;;;;;;67.22;32.90;;;;;;;-144.48;100.00;62369.91;5060422;28;20470;-68
2022/08/20 04:34:04;;;;;;;71.53;33.70;;;;;;;-144.48;100.00;62369.91;5077078;28;20025;-68
2022/08/20 04:36:30;;;;;;;71.68;32.85;;;;;;;-144.48;100.00;62369.91;5053952;28;20024;-68
2022/08/20 04:38:55;;;;;;;70.75;32.88;;;;;;;-144.48;100.00;62369.91;5037280;28;20028;-68
2022/08/20 04:41:21;;;;;;;74.30;33.58;;;;;;;-144.48;100.00;62369.91;5052932;28;20032;-68
2022/08/20 04:43:46;;;;;;;67.88;32.63;;;;;;;-144.48;100.00;62369.91;5071661;28;20032;-69
2022/08/20 04:46:13;;;;;;;74.43;36.60;;;;;;;-144.48;100.00;62369.91;5071166;28;20347;-67
2022/08/20 04:48:39;;;;;;;81.35;34.20;;;;;;;-144.48;100.00;62369.91;5053270;28;20028;-68
2022/08/20 04:51:06;;;;;;;73.13;33.55;;;;;;;-144.48;100.00;62369.91;5050202;28;20018;-68
2022/08/20 04:53:32;;;;;;;67.40;33.65;;;;;;;-144.48;100.00;62369.91;5069505;28;20029;-70
2022/08/20 04:56:00;;;;;;;71.25;33.58;;;;;;;-144.48;100.00;62369.91;5071407;28;20025;-70
2022/08/20 04:58:29;;;;;;;64.45;30.40;;;;;;;-144.48;100.00;62369.91;5070799;28;20107;-71
2022/08/20 05:00:58;;;;;;;61.08;29.83;;;;;;;-144.48;100.00;62369.91;5071079;28;20028;-68
2022/08/20 05:03:24;;;;;;;78.88;33.67;;;;;;;-144.48;100.00;62369.91;5052029;28;20025;-70
2022/08/20 05:05:50;;;;;;;61.03;30.67;;;;;;;-144.48;100.00;62369.91;5071296;28;20024;-69
2022/08/20 05:08:18;;;;;;;64.30;31.35;;;;;;;-144.48;100.00;62369.91;5042817;28;20017;-70
2022/08/20 05:10:44;;;;;;;81.10;36.38;;;;;;;-144.48;100.00;62369.91;5063027;28;20474;-69
2022/08/20 05:13:10;;;;;;;80.18;35.17;;;;;;;-144.48;100.00;62369.91;5070738;28;20031;-68
2022/08/20 05:15:37;;;;;;;67.68;32.75;;;;;;;-144.48;100.00;62369.91;5071236;28;20021;-68
2022/08/20 05:18:04;;;;;;;70.53;33.40;;;;;;;-144.48;100.00;62369.91;5052692;28;20024;-70
2022/08/20 05:20:33;;;;;;;65.07;31.75;;;;;;;-144.48;100.00;62369.91;5052764;28;20024;-70
2022/08/20 05:22:59;;;;;;;63.25;29.88;;;;;;;-144.48;100.00;62369.91;5052745;28;20020;-71
2022/08/20 05:25:30;;;;;;;68.30;30.42;;;;;;;-144.48;100.00;62369.91;5070303;28;20062;-68
2022/08/20 05:28:02;;;;;;;67.47;31.42;;;;;;;-144.48;100.00;62369.91;5064819;28;20448;-67
2022/08/20 05:30:37;;;;;;;60.95;29.27;;;;;;;-144.48;100.00;62369.91;5050628;28;20027;-67
2022/08/20 05:33:05;;;;;;;67.97;31.45;;;;;;;-144.48;100.00;62369.91;5064925;28;20023;-72
2022/08/20 05:35:37;;;;;;;66.07;31.50;;;;;;;-144.48;100.00;62369.91;5055718;28;20024;-69
2022/08/20 05:38:07;;;;;;;70.72;32.08;;;;;;;-144.48;100.00;62369.91;5053110;28;20027;-69
2022/08/20 05:40:33;;;;;;;67.00;30.95;;;;;;;-144.48;100.00;62369.91;5069973;28;20547;-69
2022/08/20 05:42:58;;;;;;;68.75;31.92;;;;;;;-144.48;100.00;62369.91;5052159;28;20482;-73
2022/08/20 05:45:24;;;;;;;59.55;29.92;;;;;;;-144.48;100.00;62369.91;5032252;28;20029;-70
2022/08/20 05:47:49;;;;;;;68.60;31.50;;;;;;;-144.48;100.00;62369.91;5061782;28;20021;-68
2022/08/20 05:50:17;;;;;;;66.75;30.90;;;;;;;-144.48;100.00;62369.91;5052283;28;20538;-68
2022/08/20 05:52:43;;;;;;;70.13;30.87;;;;;;;-144.48;100.00;62369.91;5070338;28;20295;-72
2022/08/20 05:55:12;;;;;;;54.83;28.33;;;;;;;-144.48;100.00;62369.91;5070084;28;20021;-69
2022/08/20 05:57:38;;;;;;;63.92;28.85;;;;;;;-144.48;100.00;62369.91;5051543;28;20043;-69
2022/08/20 06:00:07;;;;;;;64.82;32.05;;;;;;;-144.48;100.00;62369.91;5052353;28;20127;-69
2022/08/20 06:05:18;;;;;;;65.68;31.23;;;;;;;-144.48;100.00;62369.91;5057513;28;20040;-71
2022/08/20 06:07:44;;;;;;;63.97;28.58;;;;;;;-144.48;100.00;62369.91;5069898;28;20056;-69
2022/08/20 06:10:10;;;;;;;64.55;29.48;;;;;;;-144.48;100.00;62369.91;5051974;28;20052;-71
2022/08/20 06:12:36;;;;;;;58.85;28.60;;;;;;;-144.48;100.00;62369.91;5052006;28;20394;-71
2022/08/20 06:15:03;;;;;;;60.20;28.05;;;;;;;-144.48;100.00;62369.91;5069556;28;20028;-69
2022/08/20 06:17:28;;;;;;;52.97;27.25;;;;;;;-144.48;100.00;62369.91;5051956;28;20039;-68
2022/08/20 06:19:54;;;;;;;61.83;29.67;;;;;;;-144.48;100.00;62369.91;5070043;28;20036;-71
2022/08/20 06:22:19;;;;;;;52.15;26.40;;;;;;;-144.48;100.00;62369.91;5051496;28;20013;-68
2022/08/20 06:24:45;;;;;;;60.40;27.65;;;;;;;-144.48;100.00;62369.91;5051649;28;20071;-70
2022/08/20 06:27:14;;;;;;;67.28;29.88;;;;;;;-144.48;100.00;62369.91;5047451;28;20497;-70
2022/08/20 06:29:40;;;;;;;57.13;26.98;;;;;;;-144.48;100.00;62369.91;5031859;28;20017;-68
2022/08/20 06:32:05;;;;;;;52.33;26.50;;;;;;;-144.48;100.00;62369.91;5051635;28;20055;-71
2022/08/20 06:34:31;;;;;;;53.05;25.83;;;;;;;-144.48;100.00;62369.91;5058388;28;20052;-70
2022/08/20 06:36:58;;;;;;;56.38;28.45;;;;;;;-144.48;100.00;62369.91;5051290;28;20050;-72
2022/08/20 06:39:24;;;;;;;55.47;26.15;;;;;;;-144.48;100.00;62369.91;5034883;28;20031;-70
2022/08/20 06:41:50;;;;;;;58.30;28.52;;;;;;;-144.48;100.00;62369.91;5048268;23;20041;-67
2022/08/20 06:44:17;;;;;;;58.28;29.67;;;;;;;-144.48;100.00;62369.91;5031882;28;20390;-69
2022/08/20 06:46:43;;;;;;;56.33;29.70;;;;;;;-144.48;100.00;62369.91;5014522;28;20025;-68
2022/08/20 06:49:08;;;;;;;72.88;34.28;;;;;;;-144.48;100.00;62369.91;5014816;28;20028;-68
2022/08/20 06:51:36;;;;;;;70.82;33.45;;;;;;;-144.48;100.00;62369.91;5029366;28;20031;-68
2022/08/20 06:54:02;;;;;;;67.20;31.65;;;;;;;-144.48;100.00;62369.91;5028065;28;20035;-70
2022/08/20 06:56:27;;;;;;;74.22;31.90;;;;;;;-144.48;100.00;62369.91;5027901;28;20080;-67
2022/08/20 06:58:53;;;;;;;64.00;32.72;;;;;;;-144.48;100.00;62369.91;5027475;28;20120;-68
2022/08/20 07:01:19;;;;;;;67.95;31.50;;;;;;;-144.48;100.00;62369.91;5027048;28;20084;-69
2022/08/20 07:03:46;;;;;;;67.70;32.25;;;;;;;-144.48;100.00;62369.91;5047810;28;20554;-68
2022/08/20 07:06:12;;;;;;;67.75;32.00;;;;;;;-144.48;100.00;62369.91;5010253;28;20068;-70
2022/08/20 07:08:37;;;;;;;57.60;28.40;;;;;;;-144.48;100.00;62369.91;5027746;28;20115;-65
2022/08/20 07:11:03;;;;;;;65.13;30.77;;;;;;;-144.48;100.00;62369.91;5029618;28;20036;-67
2022/08/20 07:13:29;;;;;;;58.40;29.17;;;;;;;-144.48;100.00;62369.91;5000294;28;20017;-67
2022/08/20 07:15:54;;;;;;;63.72;29.83;;;;;;;-144.48;100.00;62369.91;5008008;28;20048;-67
2022/08/20 07:18:21;;;;;;;66.30;29.90;;;;;;;-144.48;100.00;62369.91;5037857;28;20021;-68
2022/08/20 07:20:47;;;;;;;58.65;29.75;;;;;;;-144.48;100.00;62369.91;5046704;28;20064;-70
2022/08/20 07:23:12;;;;;;;62.75;30.27;;;;;;;-144.48;100.00;62369.91;5020068;28;20175;-68
2022/08/20 07:25:40;;;;;;;61.72;30.23;;;;;;;-144.48;100.00;62369.91;5046409;28;20074;-69
2022/08/20 07:28:18;;;;;;;57.58;28.17;;;;;;;-144.48;100.00;62369.91;5035910;28;20025;-68
2022/08/20 07:33:29;;;;;;;61.13;27.70;;;;;;;-144.48;100.00;62369.91;5043846;28;20031;-68
2022/08/20 07:35:56;;;;;;;56.60;28.75;;;;;;;-144.48;100.00;62369.91;5051418;28;20402;-70
2022/08/20 07:38:24;;;;;;;54.20;28.00;;;;;;;-144.48;100.00;62369.91;5033182;28;20025;-67
2022/08/20 07:40:55;;;;;;;55.42;27.00;;;;;;;-144.48;100.00;62369.91;5031946;28;20036;-70
2022/08/20 07:43:22;;;;;;;57.92;26.70;;;;;;;-144.48;100.00;62369.91;5030874;28;20036;-70
2022/08/20 07:45:49;;;;;;;63.70;29.13;;;;;;;-144.48;100.00;62369.91;5031324;28;20032;-68
2022/08/20 07:48:16;;;;;;;55.63;27.92;;;;;;;-144.48;100.00;62369.91;5029712;28;20036;-68
2022/08/20 07:50:42;;;;;;;55.83;27.73;;;;;;;-144.48;100.00;62369.91;5034025;28;20021;-68
2022/08/20 07:53:08;;;;;;;50.90;27.42;;;;;;;-144.48;100.00;62369.91;5036744;28;20029;-68
2022/08/20 07:55:33;;;;;;;49.88;26.98;;;;;;;-144.48;100.00;62369.91;5023528;28;20036;-68
2022/08/20 07:58:06;;;;;;;47.05;25.65;;;;;;;-144.48;100.00;62369.91;5035798;28;20021;-68
2022/08/20 08:00:32;;;;;;;47.70;26.20;;;;;;;-144.48;100.00;62369.91;5032048;28;20025;-68
2022/08/20 08:02:58;;;;;;;53.25;25.95;;;;;;;-144.48;100.00;62369.91;5030394;28;20013;-67
2022/08/20 08:05:24;;;;;;;45.28;24.08;;;;;;;-144.48;100.00;62369.91;5023517;28;20111;-68
2022/08/20 08:07:51;;;;;;;49.40;25.67;;;;;;;-144.48;100.00;62369.91;5030801;28;20156;-66
2022/08/20 08:10:20;;;;;;;53.00;25.13;;;;;;;-144.48;100.00;62369.91;5023514;28;20268;-68
2022/08/20 08:12:51;;;;;;;52.63;24.90;;;;;;;-144.48;100.00;62369.91;5051545;28;20099;-67
2022/08/20 08:15:31;;;;;;;47.30;23.98;;;;;;;-144.48;100.00;62369.91;5034164;28;20059;-66
2022/08/20 08:18:06;;;;;;;47.13;23.05;;;;;;;-144.48;100.00;62369.91;5044684;28;20478;-64
2022/08/20 08:20:36;;;;;;;45.40;24.50;;;;;;;-144.48;100.00;62369.91;5034230;28;20041;-69
2022/08/20 08:23:02;;;;;;;44.55;23.42;;;;;;;-144.48;100.00;62369.91;5017884;28;20045;-69
2022/08/20 08:25:28;;;;;;;46.00;23.63;;;;;;;-144.48;100.00;62369.91;5029985;28;21424;-65
2022/08/20 08:27:53;;;;;;;54.00;26.73;;;;;;;-144.48;100.00;62369.91;5048853;28;20072;-69
2022/08/20 08:30:19;;;;;;;41.38;22.90;;;;;;;-144.48;100.00;62369.91;5031012;28;20483;-68
2022/08/20 08:35:31;;;;;;;46.35;23.50;;;;;;;-144.48;100.00;62369.91;5025366;28;20043;-68
2022/08/20 08:37:58;;;;;;;44.83;24.73;;;;;;;-144.48;100.00;62369.91;5032041;28;20037;-69
2022/08/20 08:40:24;;;;;;;38.42;23.02;;;;;;;-144.48;100.00;62369.91;5051427;28;20020;-69
2022/08/20 08:42:56;;;;;;;46.92;23.13;;;;;;;-144.48;100.00;62369.91;5050667;28;20295;-68
2022/08/20 08:45:26;;;;;;;45.53;24.38;;;;;;;-144.48;100.00;62369.91;5051147;28;20501;-69
2022/08/20 08:47:53;;;;;;;46.35;23.40;;;;;;;-144.48;100.00;62369.91;5017128;28;20115;-68
2022/08/20 08:50:26;;;;;;;47.10;25.65;;;;;;;-144.48;100.00;62369.91;5033053;28;20490;-67
2022/08/20 08:52:56;;;;;;;51.25;26.77;;;;;;;-144.48;100.00;62369.91;5001743;28;20534;-68
2022/08/20 08:55:22;;;;;;;53.38;25.13;;;;;;;-144.48;100.00;62369.91;5038985;28;20025;-67
2022/08/20 08:57:48;;;;;;;47.55;24.60;;;;;;;-144.48;100.00;62369.91;5032324;28;20113;-68
2022/08/20 09:00:17;;;;;;;50.97;25.52;;;;;;;-144.48;100.00;62369.91;5048390;28;20485;-67
2022/08/20 09:03:09;;;;;;;53.20;29.10;;;;;;;-144.48;100.00;62369.91;5037548;28;20048;-69
2022/08/20 09:05:47;;;;;;;49.13;24.45;;;;;;;-144.48;100.00;62369.91;5050044;28;20116;-69
2022/08/20 09:08:17;;;;;;;58.17;26.55;;;;;;;-144.48;100.00;62369.91;5029387;28;20025;-68
2022/08/20 09:10:43;;;;;;;38.15;21.35;;;;;;;-144.48;100.00;62369.91;5026780;28;20041;-68
2022/08/20 09:13:10;;;;;;;52.08;26.83;;;;;;;-144.48;100.00;62369.91;5031084;28;20040;-68
2022/08/20 09:15:35;;;;;;;52.40;24.65;;;;;;;-144.48;100.00;62369.91;5040893;28;20021;-67
2022/08/20 09:18:01;;;;;;;45.70;23.35;;;;;;;-144.48;100.00;62369.91;5042154;28;20099;-65
2022/08/20 09:20:26;;;;;;;49.78;24.20;;;;;;;-144.48;100.00;62369.91;5050515;28;20029;-69
2022/08/20 09:22:52;;;;;;;50.30;25.02;;;;;;;-144.48;100.00;62369.91;5050352;28;20020;-68
2022/08/20 09:25:18;;;;;;;46.88;23.77;;;;;;;-144.48;100.00;62369.91;5032429;28;20040;-67
2022/08/20 09:27:44;;;;;;;40.72;22.90;;;;;;;-144.48;100.00;62369.91;5043440;28;20021;-69
2022/08/20 09:30:12;;;;;;;46.85;23.40;;;;;;;-144.48;100.00;62369.91;5030586;28;20057;-68
2022/08/20 09:32:38;;;;;;;46.15;25.20;;;;;;;-144.48;100.00;62369.91;5049969;28;20021;-70
2022/08/20 09:35:04;;;;;;;48.67;23.50;;;;;;;-144.48;100.00;62369.91;5031774;28;20051;-69
2022/08/20 09:37:31;;;;;;;49.08;24.23;;;;;;;-144.48;100.00;62369.91;5032242;28;20490;-68
2022/08/20 09:39:57;;;;;;;42.13;22.98;;;;;;;-144.48;100.00;62369.91;5032077;28;20047;-67
2022/08/20 09:42:27;;;;;;;41.53;22.45;;;;;;;-144.48;100.00;62369.91;5031840;28;20052;-70
2022/08/20 09:44:52;;;;;;;43.95;22.88;;;;;;;-144.48;100.00;62369.91;5048234;28;20033;-67
2022/08/20 09:47:18;;;;;;;50.53;25.05;;;;;;;-144.48;100.00;62369.91;5032042;28;20404;-67
2022/08/20 09:49:45;;;;;;;43.28;21.90;;;;;;;-144.48;100.00;62369.91;5048226;28;20397;-67
2022/08/20 09:52:43;;;;;;;40.33;22.60;;;;;;;-144.48;100.00;62369.91;5043010;28;20121;-68
2022/08/20 09:55:21;;;;;;;35.45;20.73;;;;;;;-144.48;100.00;62369.91;5026278;28;20548;-70
2022/08/20 09:57:47;;;;;;;40.97;22.97;;;;;;;-144.48;100.00;62369.91;5023800;28;20351;-66
2022/08/20 10:00:13;;;;;;;43.70;23.90;;;;;;;-144.48;100.00;62369.91;5031063;28;20083;-68
2022/08/20 10:02:39;;;;;;;44.60;23.77;;;;;;;-144.48;100.00;62369.91;5031762;28;20021;-68
2022/08/20 10:05:06;;;;;;;44.63;23.02;;;;;;;-144.48;100.00;62369.91;5047294;28;20033;-68
2022/08/20 10:07:33;;;;;;;40.90;22.13;;;;;;;-144.48;100.00;62369.91;5031779;28;20021;-68
2022/08/20 10:09:59;;;;;;;44.38;22.75;;;;;;;-144.48;100.00;62369.91;5032113;28;20021;-68
2022/08/20 10:12:24;;;;;;;43.75;23.30;;;;;;;-144.48;100.00;62369.91;5022785;28;20363;-68
2022/08/20 10:14:49;;;;;;;41.40;23.48;;;;;;;-144.48;100.00;62369.91;5031515;28;20056;-69
2022/08/20 10:17:15;;;;;;;41.83;23.13;;;;;;;-144.48;100.00;62369.91;5048025;28;20260;-68
2022/08/20 10:19:40;;;;;;;43.75;24.02;;;;;;;-144.48;100.00;62369.91;5032721;28;20071;-69
2022/08/20 10:22:05;;;;;;;43.80;23.08;;;;;;;-144.48;100.00;62369.91;5031329;28;20027;-66
2022/08/20 10:24:31;;;;;;;41.65;23.15;;;;;;;-144.48;100.00;62369.91;5031361;28;20112;-68
2022/08/20 10:26:58;;;;;;;44.63;22.08;;;;;;;-144.48;100.00;62369.91;5027936;28;20018;-67
2022/08/20 10:29:25;;;;;;;45.78;23.80;;;;;;;-144.48;100.00;62369.91;5030131;28;20091;-69
2022/08/20 10:31:51;;;;;;;37.70;22.38;;;;;;;-144.48;100.00;62369.91;5043185;28;20048;-70
2022/08/20 10:34:17;;;;;;;47.92;24.40;;;;;;;-144.48;100.00;62369.91;5047700;28;20297;-68
2022/08/20 10:36:42;;;;;;;40.08;23.88;;;;;;;-144.48;100.00;62369.91;5038700;28;20183;-69
2022/08/20 10:39:08;;;;;;;51.03;26.10;;;;;;;-144.48;100.00;62369.91;5015722;28;20028;-70
2022/08/20 10:41:33;;;;;;;52.78;26.95;;;;;;;-144.48;100.00;62369.91;5021673;28;20025;-69
2022/08/20 10:43:59;;;;;;;45.58;24.92;;;;;;;-144.48;100.00;62369.91;5032798;28;20040;-69
2022/08/20 10:46:24;;;;;;;58.22;29.05;;;;;;;-144.48;100.00;62369.91;5021484;28;20044;-67
2022/08/20 10:48:50;;;;;;;54.97;27.75;;;;;;;-144.48;100.00;62369.91;5043934;28;20079;-69
2022/08/20 10:51:15;;;;;;;57.35;27.75;;;;;;;-144.48;100.00;62369.91;5024393;28;20020;-67
2022/08/20 10:53:40;;;;;;;53.53;27.95;;;;;;;-144.48;100.00;62369.91;5032970;28;20087;-67
2022/08/20 10:56:06;;;;;;;48.13;26.80;;;;;;;-144.48;100.00;62369.91;5016569;28;20021;-70
2022/08/20 10:58:31;;;;;;;50.60;26.60;;;;;;;-144.48;100.00;62369.91;5049356;28;20029;-69
2022/08/20 11:00:57;;;;;;;59.28;31.77;;;;;;;-144.48;100.00;62369.91;5032773;28;20386;-70
2022/08/20 11:03:22;;;;;;;56.38;28.40;;;;;;;-144.48;100.00;62369.91;5036545;28;20029;-69
2022/08/20 11:05:48;;;;;;;46.38;25.92;;;;;;;-144.48;100.00;62369.91;5049782;28;20029;-70